sensor_id;sensor_type;location;lat;lon;timestamp;P1;durP1;ratioP1;P2;durP2;ratioP2
21905;SDS011;11117;48.644;9.006;2023-02-28T00:01:54;7.00;;;3.90;;
21905;SDS011;11117;48.644;9.006;2023-02-28T00:04:19;8.97;;;3.90;;
21905;SDS011;11117;48.644;9.006;2023-02-28T00:06:45;8.63;;;3.90;;
21905;SDS011;11117;48.644;9.006;2023-02-28T00:09:10;8.53;;;4.10;;
21905;SDS011;11117;48.644;9.006;2023-02-28T00:11:36;7.87;;;4.10;;
21905;SDS011;11117;48.644;9.006;2023-02-28T00:14:01;6.43;;;4.17;;
21905;SDS011;11117;48.644;9.006;2023-02-28T00:16:27;9.67;;;4.00;;
21905;SDS011;11117;48.644;9.006;2023-02-28T00:18:52;6.43;;;2.87;;
21905;SDS011;11117;48.644;9.006;2023-02-28T00:21:18;10.90;;;3.93;;
21905;SDS011;11117;48.644;9.006;2023-02-28T00:23:44;8.20;;;4.00;;
21905;SDS011;11117;48.644;9.006;2023-02-28T00:26:10;6.90;;;3.70;;
21905;SDS011;11117;48.644;9.006;2023-02-28T00:28:35;9.67;;;4.10;;
21905;SDS011;11117;48.644;9.006;2023-02-28T00:31:01;9.67;;;4.07;;
21905;SDS011;11117;48.644;9.006;2023-02-28T00:33:27;10.63;;;3.80;;
21905;SDS011;11117;48.644;9.006;2023-02-28T00:36:00;7.43;;;3.53;;
21905;SDS011;11117;48.644;9.006;2023-02-28T00:38:27;8.10;;;4.07;;
21905;SDS011;11117;48.644;9.006;2023-02-28T00:40:52;8.03;;;4.30;;
21905;SDS011;11117;48.644;9.006;2023-02-28T00:43:18;8.67;;;4.37;;
21905;SDS011;11117;48.644;9.006;2023-02-28T00:45:43;9.50;;;4.23;;
21905;SDS011;11117;48.644;9.006;2023-02-28T00:48:09;8.77;;;4.30;;
21905;SDS011;11117;48.644;9.006;2023-02-28T00:50:34;9.23;;;4.07;;
21905;SDS011;11117;48.644;9.006;2023-02-28T00:53:00;8.97;;;4.10;;
21905;SDS011;11117;48.644;9.006;2023-02-28T00:55:25;9.30;;;4.33;;
21905;SDS011;11117;48.644;9.006;2023-02-28T00:57:51;8.03;;;4.60;;
21905;SDS011;11117;48.644;9.006;2023-02-28T01:00:16;9.33;;;4.33;;
21905;SDS011;11117;48.644;9.006;2023-02-28T01:02:42;6.73;;;3.90;;
21905;SDS011;11117;48.644;9.006;2023-02-28T01:05:08;7.83;;;4.10;;
21905;SDS011;11117;48.644;9.006;2023-02-28T01:07:33;6.90;;;3.80;;
21905;SDS011;11117;48.644;9.006;2023-02-28T01:09:59;6.70;;;3.77;;
21905;SDS011;11117;48.644;9.006;2023-02-28T01:12:24;9.33;;;4.47;;
21905;SDS011;11117;48.644;9.006;2023-02-28T01:14:50;8.73;;;4.37;;
21905;SDS011;11117;48.644;9.006;2023-02-28T01:17:15;8.47;;;4.43;;
21905;SDS011;11117;48.644;9.006;2023-02-28T01:19:41;9.07;;;4.00;;
21905;SDS011;11117;48.644;9.006;2023-02-28T01:22:07;8.07;;;3.80;;
21905;SDS011;11117;48.644;9.006;2023-02-28T01:24:32;7.87;;;4.10;;
21905;SDS011;11117;48.644;9.006;2023-02-28T01:26:58;8.23;;;4.20;;
21905;SDS011;11117;48.644;9.006;2023-02-28T01:29:24;8.97;;;3.93;;
21905;SDS011;11117;48.644;9.006;2023-02-28T01:31:49;8.17;;;3.83;;
21905;SDS011;11117;48.644;9.006;2023-02-28T01:34:15;8.80;;;4.60;;
21905;SDS011;11117;48.644;9.006;2023-02-28T01:36:40;10.23;;;4.70;;
21905;SDS011;11117;48.644;9.006;2023-02-28T01:39:06;7.70;;;3.93;;
21905;SDS011;11117;48.644;9.006;2023-02-28T01:41:32;7.43;;;3.77;;
21905;SDS011;11117;48.644;9.006;2023-02-28T01:46:32;5.27;;;3.33;;
21905;SDS011;11117;48.644;9.006;2023-02-28T01:51:38;11.23;;;4.37;;
21905;SDS011;11117;48.644;9.006;2023-02-28T01:54:16;7.33;;;3.50;;
21905;SDS011;11117;48.644;9.006;2023-02-28T01:56:53;8.47;;;4.17;;
21905;SDS011;11117;48.644;9.006;2023-02-28T01:59:29;8.53;;;4.50;;
21905;SDS011;11117;48.644;9.006;2023-02-28T02:02:02;6.40;;;3.30;;
21905;SDS011;11117;48.644;9.006;2023-02-28T02:04:32;7.67;;;3.87;;
21905;SDS011;11117;48.644;9.006;2023-02-28T02:07:05;8.40;;;4.43;;
21905;SDS011;11117;48.644;9.006;2023-02-28T02:09:30;9.27;;;4.50;;
21905;SDS011;11117;48.644;9.006;2023-02-28T02:11:56;9.47;;;2.40;;
21905;SDS011;11117;48.644;9.006;2023-02-28T02:33:32;8.80;;;4.77;;
21905;SDS011;11117;48.644;9.006;2023-02-28T02:36:23;10.63;;;3.90;;
21905;SDS011;11117;48.644;9.006;2023-02-28T02:41:46;10.67;;;4.33;;
21905;SDS011;11117;48.644;9.006;2023-02-28T02:44:30;10.13;;;4.63;;
21905;SDS011;11117;48.644;9.006;2023-02-28T02:47:07;10.97;;;5.30;;
21905;SDS011;11117;48.644;9.006;2023-02-28T02:49:38;10.73;;;5.63;;
21905;SDS011;11117;48.644;9.006;2023-02-28T02:52:08;11.40;;;3.50;;
21905;SDS011;11117;48.644;9.006;2023-02-28T02:54:38;9.97;;;5.50;;
21905;SDS011;11117;48.644;9.006;2023-02-28T02:57:09;10.60;;;4.10;;
21905;SDS011;11117;48.644;9.006;2023-02-28T02:59:38;10.27;;;5.40;;
21905;SDS011;11117;48.644;9.006;2023-02-28T03:02:06;13.93;;;5.67;;
21905;SDS011;11117;48.644;9.006;2023-02-28T03:04:37;10.50;;;5.77;;
21905;SDS011;11117;48.644;9.006;2023-02-28T03:07:07;9.03;;;5.30;;
21905;SDS011;11117;48.644;9.006;2023-02-28T03:09:33;9.07;;;4.30;;
21905;SDS011;11117;48.644;9.006;2023-02-28T03:11:59;8.63;;;4.13;;
21905;SDS011;11117;48.644;9.006;2023-02-28T03:23:13;15.03;;;5.30;;
21905;SDS011;11117;48.644;9.006;2023-02-28T03:28:30;8.70;;;5.33;;
21905;SDS011;11117;48.644;9.006;2023-02-28T03:31:01;24.47;;;10.47;;
21905;SDS011;11117;48.644;9.006;2023-02-28T03:33:35;12.13;;;6.23;;
21905;SDS011;11117;48.644;9.006;2023-02-28T03:36:06;14.53;;;6.33;;
21905;SDS011;11117;48.644;9.006;2023-02-28T03:41:15;11.67;;;5.83;;
21905;SDS011;11117;48.644;9.006;2023-02-28T03:43:48;11.90;;;6.30;;
21905;SDS011;11117;48.644;9.006;2023-02-28T03:46:22;8.67;;;4.20;;
21905;SDS011;11117;48.644;9.006;2023-02-28T03:49:01;12.30;;;6.07;;
21905;SDS011;11117;48.644;9.006;2023-02-28T03:51:37;11.03;;;6.10;;
21905;SDS011;11117;48.644;9.006;2023-02-28T03:54:06;12.23;;;6.27;;
21905;SDS011;11117;48.644;9.006;2023-02-28T03:56:48;9.77;;;5.73;;
21905;SDS011;11117;48.644;9.006;2023-02-28T03:59:23;12.17;;;6.63;;
21905;SDS011;11117;48.644;9.006;2023-02-28T04:01:59;11.27;;;6.33;;
21905;SDS011;11117;48.644;9.006;2023-02-28T04:04:24;9.40;;;4.90;;
21905;SDS011;11117;48.644;9.006;2023-02-28T04:06:51;11.70;;;5.73;;
21905;SDS011;11117;48.644;9.006;2023-02-28T04:09:17;11.07;;;5.60;;
21905;SDS011;11117;48.644;9.006;2023-02-28T04:11:50;14.87;;;6.57;;
21905;SDS011;11117;48.644;9.006;2023-02-28T04:14:18;12.47;;;6.47;;
21905;SDS011;11117;48.644;9.006;2023-02-28T04:16:44;13.43;;;6.57;;
21905;SDS011;11117;48.644;9.006;2023-02-28T04:19:11;16.67;;;6.70;;
21905;SDS011;11117;48.644;9.006;2023-02-28T04:21:41;12.77;;;6.30;;
21905;SDS011;11117;48.644;9.006;2023-02-28T04:24:13;12.37;;;6.97;;
21905;SDS011;11117;48.644;9.006;2023-02-28T04:26:41;11.37;;;5.93;;
21905;SDS011;11117;48.644;9.006;2023-02-28T04:29:08;12.83;;;6.83;;
21905;SDS011;11117;48.644;9.006;2023-02-28T04:31:36;12.47;;;6.57;;
21905;SDS011;11117;48.644;9.006;2023-02-28T04:34:02;13.50;;;6.33;;
21905;SDS011;11117;48.644;9.006;2023-02-28T04:36:28;13.87;;;6.80;;
21905;SDS011;11117;48.644;9.006;2023-02-28T04:38:54;11.63;;;6.17;;
21905;SDS011;11117;48.644;9.006;2023-02-28T04:41:19;18.23;;;7.03;;
21905;SDS011;11117;48.644;9.006;2023-02-28T04:43:46;13.40;;;6.60;;
21905;SDS011;11117;48.644;9.006;2023-02-28T04:46:11;13.13;;;7.00;;
21905;SDS011;11117;48.644;9.006;2023-02-28T04:48:37;13.27;;;6.97;;
21905;SDS011;11117;48.644;9.006;2023-02-28T04:51:04;14.60;;;6.20;;
21905;SDS011;11117;48.644;9.006;2023-02-28T04:53:35;13.47;;;6.57;;
21905;SDS011;11117;48.644;9.006;2023-02-28T04:56:01;14.03;;;7.27;;
21905;SDS011;11117;48.644;9.006;2023-02-28T04:58:27;12.03;;;6.80;;
21905;SDS011;11117;48.644;9.006;2023-02-28T05:00:53;13.43;;;6.60;;
21905;SDS011;11117;48.644;9.006;2023-02-28T05:03:19;11.87;;;6.60;;
21905;SDS011;11117;48.644;9.006;2023-02-28T05:05:45;14.70;;;7.03;;
21905;SDS011;11117;48.644;9.006;2023-02-28T05:08:11;12.33;;;7.43;;
21905;SDS011;11117;48.644;9.006;2023-02-28T05:10:37;14.57;;;6.97;;
21905;SDS011;11117;48.644;9.006;2023-02-28T05:13:02;14.57;;;6.90;;
21905;SDS011;11117;48.644;9.006;2023-02-28T05:15:28;11.50;;;6.57;;
21905;SDS011;11117;48.644;9.006;2023-02-28T05:17:54;14.53;;;7.43;;
21905;SDS011;11117;48.644;9.006;2023-02-28T05:20:19;13.30;;;7.30;;
21905;SDS011;11117;48.644;9.006;2023-02-28T05:22:45;14.47;;;5.87;;
21905;SDS011;11117;48.644;9.006;2023-02-28T05:25:12;14.13;;;7.47;;
21905;SDS011;11117;48.644;9.006;2023-02-28T05:27:41;16.33;;;7.70;;
21905;SDS011;11117;48.644;9.006;2023-02-28T05:30:07;13.80;;;7.57;;
21905;SDS011;11117;48.644;9.006;2023-02-28T05:32:33;16.03;;;7.47;;
21905;SDS011;11117;48.644;9.006;2023-02-28T05:34:59;18.97;;;7.53;;
21905;SDS011;11117;48.644;9.006;2023-02-28T05:37:24;16.98;;;9.20;;
21905;SDS011;11117;48.644;9.006;2023-02-28T05:39:50;14.87;;;7.97;;
21905;SDS011;11117;48.644;9.006;2023-02-28T05:42:15;15.47;;;8.30;;
21905;SDS011;11117;48.644;9.006;2023-02-28T05:44:41;14.40;;;8.00;;
21905;SDS011;11117;48.644;9.006;2023-02-28T05:47:06;16.80;;;7.50;;
21905;SDS011;11117;48.644;9.006;2023-02-28T05:49:32;16.07;;;8.87;;
21905;SDS011;11117;48.644;9.006;2023-02-28T05:51:57;14.73;;;7.83;;
21905;SDS011;11117;48.644;9.006;2023-02-28T05:54:23;14.47;;;7.83;;
21905;SDS011;11117;48.644;9.006;2023-02-28T05:56:48;16.30;;;7.60;;
21905;SDS011;11117;48.644;9.006;2023-02-28T05:59:14;13.63;;;7.33;;
21905;SDS011;11117;48.644;9.006;2023-02-28T06:01:40;16.10;;;8.53;;
21905;SDS011;11117;48.644;9.006;2023-02-28T06:04:08;15.57;;;8.10;;
21905;SDS011;11117;48.644;9.006;2023-02-28T06:06:35;17.33;;;7.97;;
21905;SDS011;11117;48.644;9.006;2023-02-28T06:09:01;16.20;;;8.27;;
21905;SDS011;11117;48.644;9.006;2023-02-28T06:11:27;15.23;;;6.77;;
21905;SDS011;11117;48.644;9.006;2023-02-28T06:13:53;18.60;;;8.80;;
21905;SDS011;11117;48.644;9.006;2023-02-28T06:16:19;15.10;;;8.07;;
21905;SDS011;11117;48.644;9.006;2023-02-28T06:18:45;13.90;;;8.20;;
21905;SDS011;11117;48.644;9.006;2023-02-28T06:21:11;18.00;;;9.47;;
21905;SDS011;11117;48.644;9.006;2023-02-28T06:23:37;19.23;;;8.93;;
21905;SDS011;11117;48.644;9.006;2023-02-28T06:26:03;20.13;;;10.03;;
21905;SDS011;11117;48.644;9.006;2023-02-28T06:28:29;16.97;;;8.53;;
21905;SDS011;11117;48.644;9.006;2023-02-28T06:30:55;16.97;;;8.40;;
21905;SDS011;11117;48.644;9.006;2023-02-28T06:33:20;18.87;;;8.73;;
21905;SDS011;11117;48.644;9.006;2023-02-28T06:35:46;17.83;;;9.10;;
21905;SDS011;11117;48.644;9.006;2023-02-28T06:38:14;20.23;;;8.90;;
21905;SDS011;11117;48.644;9.006;2023-02-28T06:40:40;16.77;;;8.27;;
21905;SDS011;11117;48.644;9.006;2023-02-28T06:43:05;19.83;;;8.67;;
21905;SDS011;11117;48.644;9.006;2023-02-28T06:45:31;18.20;;;8.83;;
21905;SDS011;11117;48.644;9.006;2023-02-28T06:47:56;16.73;;;8.50;;
21905;SDS011;11117;48.644;9.006;2023-02-28T06:50:22;20.53;;;9.20;;
21905;SDS011;11117;48.644;9.006;2023-02-28T06:52:47;18.47;;;8.77;;
21905;SDS011;11117;48.644;9.006;2023-02-28T06:55:13;19.30;;;9.40;;
21905;SDS011;11117;48.644;9.006;2023-02-28T06:57:39;26.07;;;11.80;;
21905;SDS011;11117;48.644;9.006;2023-02-28T07:00:06;18.30;;;9.80;;
21905;SDS011;11117;48.644;9.006;2023-02-28T07:02:35;15.83;;;8.20;;
21905;SDS011;11117;48.644;9.006;2023-02-28T07:05:01;16.90;;;9.27;;
21905;SDS011;11117;48.644;9.006;2023-02-28T07:07:27;17.17;;;8.83;;
21905;SDS011;11117;48.644;9.006;2023-02-28T07:09:52;17.63;;;9.33;;
21905;SDS011;11117;48.644;9.006;2023-02-28T07:12:18;17.40;;;8.20;;
21905;SDS011;11117;48.644;9.006;2023-02-28T07:14:43;19.40;;;9.40;;
21905;SDS011;11117;48.644;9.006;2023-02-28T07:17:09;22.53;;;10.97;;
21905;SDS011;11117;48.644;9.006;2023-02-28T07:19:35;16.77;;;9.23;;
21905;SDS011;11117;48.644;9.006;2023-02-28T07:22:01;19.13;;;10.43;;
21905;SDS011;11117;48.644;9.006;2023-02-28T07:24:26;20.33;;;10.50;;
21905;SDS011;11117;48.644;9.006;2023-02-28T07:26:52;20.03;;;8.97;;
21905;SDS011;11117;48.644;9.006;2023-02-28T07:29:17;18.27;;;10.27;;
21905;SDS011;11117;48.644;9.006;2023-02-28T07:31:43;17.27;;;9.03;;
21905;SDS011;11117;48.644;9.006;2023-02-28T07:34:08;24.33;;;14.13;;
21905;SDS011;11117;48.644;9.006;2023-02-28T07:36:34;24.67;;;12.80;;
21905;SDS011;11117;48.644;9.006;2023-02-28T07:38:59;23.63;;;11.73;;
21905;SDS011;11117;48.644;9.006;2023-02-28T07:41:25;19.30;;;10.27;;
21905;SDS011;11117;48.644;9.006;2023-02-28T07:43:53;17.20;;;9.13;;
21905;SDS011;11117;48.644;9.006;2023-02-28T07:46:19;20.03;;;10.67;;
21905;SDS011;11117;48.644;9.006;2023-02-28T07:48:44;24.67;;;11.10;;
21905;SDS011;11117;48.644;9.006;2023-02-28T07:51:11;20.30;;;10.83;;
21905;SDS011;11117;48.644;9.006;2023-02-28T07:53:36;24.27;;;11.00;;
21905;SDS011;11117;48.644;9.006;2023-02-28T07:56:02;23.17;;;12.73;;
21905;SDS011;11117;48.644;9.006;2023-02-28T07:58:29;20.77;;;10.90;;
21905;SDS011;11117;48.644;9.006;2023-02-28T08:00:55;24.10;;;12.57;;
21905;SDS011;11117;48.644;9.006;2023-02-28T08:03:22;23.07;;;14.13;;
21905;SDS011;11117;48.644;9.006;2023-02-28T08:05:48;22.63;;;12.10;;
21905;SDS011;11117;48.644;9.006;2023-02-28T08:08:14;20.63;;;11.50;;
21905;SDS011;11117;48.644;9.006;2023-02-28T08:10:41;21.70;;;10.80;;
21905;SDS011;11117;48.644;9.006;2023-02-28T08:13:06;26.67;;;12.27;;
21905;SDS011;11117;48.644;9.006;2023-02-28T08:15:32;27.07;;;14.27;;
21905;SDS011;11117;48.644;9.006;2023-02-28T08:17:58;23.13;;;11.30;;
21905;SDS011;11117;48.644;9.006;2023-02-28T08:20:24;24.30;;;12.87;;
21905;SDS011;11117;48.644;9.006;2023-02-28T08:22:50;22.43;;;11.37;;
21905;SDS011;11117;48.644;9.006;2023-02-28T08:25:16;22.63;;;11.30;;
21905;SDS011;11117;48.644;9.006;2023-02-28T08:27:42;24.80;;;10.53;;
21905;SDS011;11117;48.644;9.006;2023-02-28T08:30:11;21.00;;;11.90;;
21905;SDS011;11117;48.644;9.006;2023-02-28T08:32:38;25.23;;;12.73;;
21905;SDS011;11117;48.644;9.006;2023-02-28T08:35:04;26.47;;;13.93;;
21905;SDS011;11117;48.644;9.006;2023-02-28T08:37:31;28.63;;;14.10;;
21905;SDS011;11117;48.644;9.006;2023-02-28T08:39:56;27.23;;;14.20;;
21905;SDS011;11117;48.644;9.006;2023-02-28T08:42:22;25.83;;;11.63;;
21905;SDS011;11117;48.644;9.006;2023-02-28T08:44:48;21.77;;;11.87;;
21905;SDS011;11117;48.644;9.006;2023-02-28T08:47:14;21.77;;;11.17;;
21905;SDS011;11117;48.644;9.006;2023-02-28T08:49:39;24.80;;;11.13;;
21905;SDS011;11117;48.644;9.006;2023-02-28T08:52:05;28.63;;;12.20;;
21905;SDS011;11117;48.644;9.006;2023-02-28T08:54:30;33.47;;;16.53;;
21905;SDS011;11117;48.644;9.006;2023-02-28T08:56:56;28.73;;;11.70;;
21905;SDS011;11117;48.644;9.006;2023-02-28T08:59:22;20.77;;;10.53;;
21905;SDS011;11117;48.644;9.006;2023-02-28T09:01:48;24.17;;;12.73;;
21905;SDS011;11117;48.644;9.006;2023-02-28T09:04:13;28.13;;;12.83;;
21905;SDS011;11117;48.644;9.006;2023-02-28T09:06:39;25.83;;;12.43;;
21905;SDS011;11117;48.644;9.006;2023-02-28T09:09:05;26.67;;;11.77;;
21905;SDS011;11117;48.644;9.006;2023-02-28T09:11:31;23.90;;;12.80;;
21905;SDS011;11117;48.644;9.006;2023-02-28T09:13:57;22.30;;;11.63;;
21905;SDS011;11117;48.644;9.006;2023-02-28T09:16:23;19.63;;;10.63;;
21905;SDS011;11117;48.644;9.006;2023-02-28T09:18:48;24.57;;;10.83;;
21905;SDS011;11117;48.644;9.006;2023-02-28T09:21:15;21.90;;;10.60;;
21905;SDS011;11117;48.644;9.006;2023-02-28T09:23:42;24.33;;;11.70;;
21905;SDS011;11117;48.644;9.006;2023-02-28T09:26:12;26.57;;;12.43;;
21905;SDS011;11117;48.644;9.006;2023-02-28T09:28:41;27.43;;;12.27;;
21905;SDS011;11117;48.644;9.006;2023-02-28T09:31:10;21.90;;;11.47;;
21905;SDS011;11117;48.644;9.006;2023-02-28T09:33:40;26.30;;;12.13;;
21905;SDS011;11117;48.644;9.006;2023-02-28T09:36:06;25.13;;;12.87;;
21905;SDS011;11117;48.644;9.006;2023-02-28T09:38:32;22.27;;;12.47;;
21905;SDS011;11117;48.644;9.006;2023-02-28T09:40:59;23.97;;;12.77;;
21905;SDS011;11117;48.644;9.006;2023-02-28T09:43:28;22.13;;;11.90;;
21905;SDS011;11117;48.644;9.006;2023-02-28T09:46:05;23.23;;;11.97;;
21905;SDS011;11117;48.644;9.006;2023-02-28T09:48:39;18.97;;;10.33;;
21905;SDS011;11117;48.644;9.006;2023-02-28T09:54:09;25.00;;;12.00;;
21905;SDS011;11117;48.644;9.006;2023-02-28T09:56:40;18.40;;;10.63;;
21905;SDS011;11117;48.644;9.006;2023-02-28T10:01:52;22.23;;;11.70;;
21905;SDS011;11117;48.644;9.006;2023-02-28T10:07:06;23.97;;;13.47;;
21905;SDS011;11117;48.644;9.006;2023-02-28T10:09:42;26.63;;;12.70;;
21905;SDS011;11117;48.644;9.006;2023-02-28T10:12:08;20.50;;;11.80;;
21905;SDS011;11117;48.644;9.006;2023-02-28T10:14:36;23.57;;;11.90;;
21905;SDS011;11117;48.644;9.006;2023-02-28T10:17:08;22.27;;;12.20;;
21905;SDS011;11117;48.644;9.006;2023-02-28T10:22:52;19.37;;;12.00;;
21905;SDS011;11117;48.644;9.006;2023-02-28T10:25:23;23.73;;;13.37;;
21905;SDS011;11117;48.644;9.006;2023-02-28T10:27:54;23.90;;;12.97;;
21905;SDS011;11117;48.644;9.006;2023-02-28T10:30:26;20.57;;;12.50;;
21905;SDS011;11117;48.644;9.006;2023-02-28T10:32:52;18.40;;;11.07;;
21905;SDS011;11117;48.644;9.006;2023-02-28T10:35:22;22.27;;;11.83;;
21905;SDS011;11117;48.644;9.006;2023-02-28T10:37:55;18.90;;;11.53;;
21905;SDS011;11117;48.644;9.006;2023-02-28T10:45:39;18.53;;;10.40;;
21905;SDS011;11117;48.644;9.006;2023-02-28T10:55:42;19.30;;;11.23;;
21905;SDS011;11117;48.644;9.006;2023-02-28T10:58:21;24.63;;;11.27;;
21905;SDS011;11117;48.644;9.006;2023-02-28T11:00:48;22.07;;;11.57;;
21905;SDS011;11117;48.644;9.006;2023-02-28T11:03:30;22.63;;;11.87;;
21905;SDS011;11117;48.644;9.006;2023-02-28T11:05:58;28.03;;;13.60;;
21905;SDS011;11117;48.644;9.006;2023-02-28T11:08:29;21.87;;;11.90;;
21905;SDS011;11117;48.644;9.006;2023-02-28T11:10:56;20.83;;;10.57;;
21905;SDS011;11117;48.644;9.006;2023-02-28T11:13:26;19.80;;;11.67;;
21905;SDS011;11117;48.644;9.006;2023-02-28T11:16:00;19.77;;;11.20;;
21905;SDS011;11117;48.644;9.006;2023-02-28T11:18:34;26.77;;;11.83;;
21905;SDS011;11117;48.644;9.006;2023-02-28T11:21:09;20.17;;;12.43;;
21905;SDS011;11117;48.644;9.006;2023-02-28T11:23:43;24.90;;;12.73;;
21905;SDS011;11117;48.644;9.006;2023-02-28T11:26:08;24.07;;;12.83;;
21905;SDS011;11117;48.644;9.006;2023-02-28T11:28:35;22.30;;;11.73;;
21905;SDS011;11117;48.644;9.006;2023-02-28T11:33:47;26.47;;;11.73;;
21905;SDS011;11117;48.644;9.006;2023-02-28T11:36:22;20.83;;;11.90;;
21905;SDS011;11117;48.644;9.006;2023-02-28T11:39:03;23.40;;;12.60;;
21905;SDS011;11117;48.644;9.006;2023-02-28T11:56:01;22.33;;;12.43;;
21905;SDS011;11117;48.644;9.006;2023-02-28T11:58:36;27.30;;;13.13;;
21905;SDS011;11117;48.644;9.006;2023-02-28T12:07:17;22.97;;;13.73;;
21905;SDS011;11117;48.644;9.006;2023-02-28T12:20:36;24.57;;;12.93;;
21905;SDS011;11117;48.644;9.006;2023-02-28T12:28:53;21.97;;;12.63;;
21905;SDS011;11117;48.644;9.006;2023-02-28T12:31:26;20.37;;;11.77;;
21905;SDS011;11117;48.644;9.006;2023-02-28T12:34:00;23.43;;;12.27;;
21905;SDS011;11117;48.644;9.006;2023-02-28T12:36:32;19.60;;;12.37;;
21905;SDS011;11117;48.644;9.006;2023-02-28T12:39:02;22.40;;;11.83;;
21905;SDS011;11117;48.644;9.006;2023-02-28T12:44:35;24.63;;;12.17;;
21905;SDS011;11117;48.644;9.006;2023-02-28T12:47:10;19.83;;;11.23;;
21905;SDS011;11117;48.644;9.006;2023-02-28T12:49:44;22.90;;;12.80;;
21905;SDS011;11117;48.644;9.006;2023-02-28T12:52:16;21.23;;;12.07;;
21905;SDS011;11117;48.644;9.006;2023-02-28T13:00:20;21.60;;;12.63;;
21905;SDS011;11117;48.644;9.006;2023-02-28T13:05:46;22.50;;;12.37;;
21905;SDS011;11117;48.644;9.006;2023-02-28T13:13:58;22.23;;;12.23;;
21905;SDS011;11117;48.644;9.006;2023-02-28T13:16:28;19.23;;;12.30;;
21905;SDS011;11117;48.644;9.006;2023-02-28T13:19:29;21.87;;;12.07;;
21905;SDS011;11117;48.644;9.006;2023-02-28T13:21:56;19.70;;;11.63;;
21905;SDS011;11117;48.644;9.006;2023-02-28T13:24:37;16.80;;;10.93;;
21905;SDS011;11117;48.644;9.006;2023-02-28T13:29:35;18.73;;;9.60;;
21905;SDS011;11117;48.644;9.006;2023-02-28T13:34:33;20.33;;;12.13;;
21905;SDS011;11117;48.644;9.006;2023-02-28T13:56:03;20.70;;;11.97;;
21905;SDS011;11117;48.644;9.006;2023-02-28T13:59:16;20.90;;;12.83;;
21905;SDS011;11117;48.644;9.006;2023-02-28T14:01:53;16.67;;;8.20;;
21905;SDS011;11117;48.644;9.006;2023-02-28T14:07:16;24.50;;;12.83;;
21905;SDS011;11117;48.644;9.006;2023-02-28T14:09:59;20.07;;;11.97;;
21905;SDS011;11117;48.644;9.006;2023-02-28T14:16:03;24.87;;;11.83;;
21905;SDS011;11117;48.644;9.006;2023-02-28T14:18:03;23.00;;;13.00;;
21905;SDS011;11117;48.644;9.006;2023-02-28T14:20:55;21.10;;;13.10;;
21905;SDS011;11117;48.644;9.006;2023-02-28T14:23:52;23.37;;;12.50;;
21905;SDS011;11117;48.644;9.006;2023-02-28T14:37:48;21.67;;;12.40;;
21905;SDS011;11117;48.644;9.006;2023-02-28T14:40:29;20.03;;;12.00;;
21905;SDS011;11117;48.644;9.006;2023-02-28T14:43:02;20.00;;;9.90;;
21905;SDS011;11117;48.644;9.006;2023-02-28T14:45:29;18.93;;;12.20;;
21905;SDS011;11117;48.644;9.006;2023-02-28T14:47:57;20.97;;;12.47;;
21905;SDS011;11117;48.644;9.006;2023-02-28T14:50:25;19.47;;;12.60;;
21905;SDS011;11117;48.644;9.006;2023-02-28T14:52:55;20.80;;;12.60;;
21905;SDS011;11117;48.644;9.006;2023-02-28T14:55:43;21.53;;;12.60;;
21905;SDS011;11117;48.644;9.006;2023-02-28T14:58:21;19.50;;;12.30;;
21905;SDS011;11117;48.644;9.006;2023-02-28T15:00:53;20.67;;;12.17;;
21905;SDS011;11117;48.644;9.006;2023-02-28T15:03:30;21.30;;;11.53;;
21905;SDS011;11117;48.644;9.006;2023-02-28T15:06:03;25.00;;;12.60;;
21905;SDS011;11117;48.644;9.006;2023-02-28T15:08:39;22.20;;;12.23;;
21905;SDS011;11117;48.644;9.006;2023-02-28T15:11:08;22.23;;;13.03;;
21905;SDS011;11117;48.644;9.006;2023-02-28T15:13:46;18.93;;;11.63;;
21905;SDS011;11117;48.644;9.006;2023-02-28T15:16:39;20.57;;;11.63;;
21905;SDS011;11117;48.644;9.006;2023-02-28T15:19:21;19.03;;;11.37;;
21905;SDS011;11117;48.644;9.006;2023-02-28T15:21:53;22.40;;;12.50;;
21905;SDS011;11117;48.644;9.006;2023-02-28T15:24:36;19.60;;;11.87;;
21905;SDS011;11117;48.644;9.006;2023-02-28T15:27:07;29.33;;;12.27;;
21905;SDS011;11117;48.644;9.006;2023-02-28T15:29:48;21.87;;;11.73;;
21905;SDS011;11117;48.644;9.006;2023-02-28T15:34:55;18.00;;;10.20;;
21905;SDS011;11117;48.644;9.006;2023-02-28T15:37:33;18.40;;;11.70;;
21905;SDS011;11117;48.644;9.006;2023-02-28T15:40:22;19.67;;;11.53;;
21905;SDS011;11117;48.644;9.006;2023-02-28T15:43:06;21.70;;;11.80;;
21905;SDS011;11117;48.644;9.006;2023-02-28T15:45:41;20.27;;;11.83;;
21905;SDS011;11117;48.644;9.006;2023-02-28T15:48:18;22.00;;;12.40;;
21905;SDS011;11117;48.644;9.006;2023-02-28T15:51:09;22.30;;;12.17;;
21905;SDS011;11117;48.644;9.006;2023-02-28T15:53:50;21.53;;;12.17;;
21905;SDS011;11117;48.644;9.006;2023-02-28T15:58:55;22.97;;;12.20;;
21905;SDS011;11117;48.644;9.006;2023-02-28T16:01:28;20.57;;;11.37;;
21905;SDS011;11117;48.644;9.006;2023-02-28T16:04:04;18.77;;;10.83;;
21905;SDS011;11117;48.644;9.006;2023-02-28T16:06:38;20.97;;;11.83;;
21905;SDS011;11117;48.644;9.006;2023-02-28T16:09:05;19.87;;;10.90;;
21905;SDS011;11117;48.644;9.006;2023-02-28T16:11:33;21.80;;;12.10;;
21905;SDS011;11117;48.644;9.006;2023-02-28T16:14:02;21.97;;;12.33;;
21905;SDS011;11117;48.644;9.006;2023-02-28T16:16:27;18.87;;;11.80;;
21905;SDS011;11117;48.644;9.006;2023-02-28T16:18:53;23.97;;;12.67;;
21905;SDS011;11117;48.644;9.006;2023-02-28T16:21:19;21.33;;;12.57;;
21905;SDS011;11117;48.644;9.006;2023-02-28T16:23:44;21.33;;;12.37;;
21905;SDS011;11117;48.644;9.006;2023-02-28T16:26:16;21.20;;;12.50;;
21905;SDS011;11117;48.644;9.006;2023-02-28T16:28:46;19.53;;;11.40;;
21905;SDS011;11117;48.644;9.006;2023-02-28T16:31:11;20.60;;;12.13;;
21905;SDS011;11117;48.644;9.006;2023-02-28T16:33:38;20.43;;;11.57;;
21905;SDS011;11117;48.644;9.006;2023-02-28T16:36:03;20.43;;;11.80;;
21905;SDS011;11117;48.644;9.006;2023-02-28T16:38:30;21.90;;;12.40;;
21905;SDS011;11117;48.644;9.006;2023-02-28T16:40:57;26.03;;;13.93;;
21905;SDS011;11117;48.644;9.006;2023-02-28T16:43:24;20.50;;;11.80;;
21905;SDS011;11117;48.644;9.006;2023-02-28T16:45:55;27.90;;;13.73;;
21905;SDS011;11117;48.644;9.006;2023-02-28T16:48:21;27.87;;;12.73;;
21905;SDS011;11117;48.644;9.006;2023-02-28T16:50:47;21.77;;;12.67;;
21905;SDS011;11117;48.644;9.006;2023-02-28T16:53:12;21.53;;;12.43;;
21905;SDS011;11117;48.644;9.006;2023-02-28T16:55:38;21.37;;;11.90;;
21905;SDS011;11117;48.644;9.006;2023-02-28T16:58:04;21.93;;;13.07;;
21905;SDS011;11117;48.644;9.006;2023-02-28T17:00:30;22.47;;;13.70;;
21905;SDS011;11117;48.644;9.006;2023-02-28T17:02:56;22.67;;;12.37;;
21905;SDS011;11117;48.644;9.006;2023-02-28T17:05:22;23.07;;;12.37;;
21905;SDS011;11117;48.644;9.006;2023-02-28T17:07:48;23.70;;;12.73;;
21905;SDS011;11117;48.644;9.006;2023-02-28T17:12:39;24.93;;;13.60;;
21905;SDS011;11117;48.644;9.006;2023-02-28T17:15:05;22.60;;;13.37;;
21905;SDS011;11117;48.644;9.006;2023-02-28T17:17:32;24.57;;;13.77;;
21905;SDS011;11117;48.644;9.006;2023-02-28T17:19:57;27.07;;;13.90;;
21905;SDS011;11117;48.644;9.006;2023-02-28T17:22:23;23.60;;;13.97;;
21905;SDS011;11117;48.644;9.006;2023-02-28T17:24:48;25.93;;;14.53;;
21905;SDS011;11117;48.644;9.006;2023-02-28T17:27:14;23.87;;;13.70;;
21905;SDS011;11117;48.644;9.006;2023-02-28T17:29:39;25.97;;;14.03;;
21905;SDS011;11117;48.644;9.006;2023-02-28T17:32:05;25.20;;;13.17;;